GAP2521 RPLL-RPMY
Flight info
| Callsign | GAP2521 |
|---|---|
| Flight time | 1h 5m |
| Altitude | 37000 |
| Route | IPATA2R IPATA W25 BATAY W8 MCT W6A SAGOL SAGOL4A |
| Aircraft | A321/M-SDE3FGHIRWY/LB1 |
Departure
| Time | 2026-05-09 06:07 |
|---|---|
| Airport | Ninoy Aquino International Airport (RPLL) |
Arrival
| Time | 2026-05-09 07:13 |
|---|---|
| Airport | Laguindingan International Airport (RPMY) |
| Time | Latitude | Longitude | Altitude | Speed | Heading |
|---|---|---|---|---|---|
| 2026-05-09 05:53 | 14.51090 | 121.01359 | 82 ft | 0 kts | 220° |
| 2026-05-09 05:57 | 14.51099 | 121.01367 | 82 ft | 2 kts | 220° |
| 2026-05-09 05:57 | 14.51111 | 121.01377 | 82 ft | 2 kts | 220° |
| 2026-05-09 05:57 | 14.51118 | 121.01384 | 81 ft | 2 kts | 219° |
| 2026-05-09 05:57 | 14.51132 | 121.01390 | 82 ft | 2 kts | 191° |
| 2026-05-09 05:58 | 14.51147 | 121.01391 | 82 ft | 2 kts | 170° |
| 2026-05-09 05:58 | 14.51161 | 121.01386 | 82 ft | 2 kts | 148° |
| 2026-05-09 05:58 | 14.51168 | 121.01381 | 82 ft | 1 kts | 135° |
| 2026-05-09 05:58 | 14.51172 | 121.01376 | 82 ft | 0 kts | 134° |
| 2026-05-09 06:00 | 14.51171 | 121.01377 | 82 ft | 0 kts | 134° |
| 2026-05-09 06:00 | 14.51139 | 121.01412 | 82 ft | 13 kts | 134° |
| 2026-05-09 06:00 | 14.51069 | 121.01485 | 82 ft | 14 kts | 135° |
| 2026-05-09 06:01 | 14.50998 | 121.01557 | 82 ft | 14 kts | 135° |
| 2026-05-09 06:01 | 14.50934 | 121.01624 | 82 ft | 11 kts | 134° |
| 2026-05-09 06:01 | 14.50893 | 121.01664 | 82 ft | 5 kts | 152° |
| 2026-05-09 06:01 | 14.50856 | 121.01650 | 82 ft | 7 kts | 231° |
| 2026-05-09 06:02 | 14.50823 | 121.01596 | 82 ft | 13 kts | 240° |
| 2026-05-09 06:02 | 14.50764 | 121.01490 | 82 ft | 18 kts | 240° |
| 2026-05-09 06:02 | 14.50700 | 121.01374 | 82 ft | 18 kts | 240° |
| 2026-05-09 06:02 | 14.50635 | 121.01258 | 82 ft | 18 kts | 240° |
| 2026-05-09 06:03 | 14.50570 | 121.01144 | 82 ft | 18 kts | 240° |
| 2026-05-09 06:03 | 14.50508 | 121.01030 | 82 ft | 18 kts | 241° |
| 2026-05-09 06:03 | 14.50446 | 121.00917 | 82 ft | 18 kts | 240° |
| 2026-05-09 06:03 | 14.50384 | 121.00805 | 82 ft | 17 kts | 240° |
| 2026-05-09 06:04 | 14.50322 | 121.00693 | 82 ft | 17 kts | 240° |
| 2026-05-09 06:04 | 14.50261 | 121.00584 | 82 ft | 17 kts | 240° |
| 2026-05-09 06:04 | 14.50199 | 121.00473 | 82 ft | 17 kts | 240° |
| 2026-05-09 06:04 | 14.50137 | 121.00362 | 82 ft | 17 kts | 240° |
| 2026-05-09 06:05 | 14.50077 | 121.00253 | 82 ft | 17 kts | 240° |
| 2026-05-09 06:05 | 14.50016 | 121.00143 | 82 ft | 17 kts | 240° |
| 2026-05-09 06:05 | 14.49957 | 121.00037 | 82 ft | 15 kts | 241° |
| 2026-05-09 06:05 | 14.49920 | 120.99970 | 82 ft | 6 kts | 231° |
| 2026-05-09 06:06 | 14.49876 | 120.99965 | 82 ft | 7 kts | 156° |
| 2026-05-09 06:06 | 14.49830 | 120.99992 | 82 ft | 8 kts | 148° |
| 2026-05-09 06:06 | 14.49803 | 121.00040 | 82 ft | 8 kts | 79° |
| 2026-05-09 06:06 | 14.49831 | 121.00097 | 82 ft | 10 kts | 60° |
| 2026-05-09 06:07 | 14.49907 | 121.00234 | 82 ft | 49 kts | 60° |
| 2026-05-09 06:07 | 14.50203 | 121.00765 | 82 ft | 119 kts | 60° |
| 2026-05-09 06:07 | 14.50717 | 121.01690 | 174 ft | 167 kts | 60° |
| 2026-05-09 06:07 | 14.51289 | 121.02739 | 789 ft | 170 kts | 60° |
| 2026-05-09 06:08 | 14.51868 | 121.03776 | 1561 ft | 166 kts | 60° |
| 2026-05-09 06:08 | 14.52431 | 121.04779 | 2106 ft | 165 kts | 60° |
| 2026-05-09 06:08 | 14.53030 | 121.05849 | 2346 ft | 177 kts | 60° |
| 2026-05-09 06:08 | 14.53667 | 121.06993 | 2596 ft | 190 kts | 60° |
| 2026-05-09 06:09 | 14.54358 | 121.08239 | 2860 ft | 204 kts | 60° |
| 2026-05-09 06:09 | 14.55085 | 121.09576 | 3077 ft | 223 kts | 65° |
| 2026-05-09 06:09 | 14.55386 | 121.11194 | 3324 ft | 242 kts | 95° |
| 2026-05-09 06:09 | 14.54790 | 121.12852 | 3688 ft | 260 kts | 123° |
| 2026-05-09 06:10 | 14.53559 | 121.14262 | 4338 ft | 265 kts | 132° |
| 2026-05-09 06:10 | 14.52233 | 121.15592 | 5035 ft | 268 kts | 133° |
| 2026-05-09 06:10 | 14.50883 | 121.16928 | 5730 ft | 271 kts | 133° |
| 2026-05-09 06:10 | 14.49525 | 121.18276 | 6431 ft | 274 kts | 133° |
| 2026-05-09 06:11 | 14.48145 | 121.19650 | 7147 ft | 277 kts | 133° |
| 2026-05-09 06:11 | 14.46761 | 121.21033 | 7866 ft | 280 kts | 133° |
| 2026-05-09 06:11 | 14.45362 | 121.22433 | 8581 ft | 282 kts | 133° |
| 2026-05-09 06:11 | 14.43955 | 121.23844 | 9273 ft | 285 kts | 133° |
| 2026-05-09 06:12 | 14.42531 | 121.25275 | 9918 ft | 288 kts | 133° |
| 2026-05-09 06:12 | 14.41091 | 121.26723 | 10552 ft | 291 kts | 133° |
| 2026-05-09 06:12 | 14.39615 | 121.28207 | 11043 ft | 300 kts | 133° |
| 2026-05-09 06:12 | 14.38098 | 121.29735 | 11309 ft | 316 kts | 133° |
| 2026-05-09 06:13 | 14.36469 | 121.31372 | 11561 ft | 331 kts | 133° |
| 2026-05-09 06:13 | 14.34784 | 121.33063 | 11832 ft | 346 kts | 133° |
| 2026-05-09 06:13 | 14.33036 | 121.34815 | 12079 ft | 360 kts | 133° |
| 2026-05-09 06:13 | 14.31195 | 121.36661 | 12299 ft | 373 kts | 133° |
| 2026-05-09 06:14 | 14.29303 | 121.38556 | 12531 ft | 386 kts | 134° |
| 2026-05-09 06:14 | 14.27341 | 121.40523 | 12768 ft | 398 kts | 134° |
| 2026-05-09 06:14 | 14.25341 | 121.42524 | 13139 ft | 404 kts | 134° |
| 2026-05-09 06:14 | 14.23309 | 121.44559 | 13626 ft | 406 kts | 134° |
| 2026-05-09 06:15 | 14.21264 | 121.46606 | 14109 ft | 409 kts | 134° |
| 2026-05-09 06:15 | 14.19233 | 121.48642 | 14582 ft | 411 kts | 134° |
| 2026-05-09 06:15 | 14.17159 | 121.50720 | 15037 ft | 414 kts | 134° |
| 2026-05-09 06:15 | 14.15087 | 121.52795 | 15471 ft | 416 kts | 134° |
| 2026-05-09 06:16 | 14.13005 | 121.54881 | 15898 ft | 419 kts | 134° |
| 2026-05-09 06:16 | 14.10924 | 121.56966 | 16314 ft | 421 kts | 134° |
| 2026-05-09 06:16 | 14.08808 | 121.59084 | 16724 ft | 424 kts | 134° |
| 2026-05-09 06:16 | 14.06683 | 121.61212 | 17118 ft | 427 kts | 134° |
| 2026-05-09 06:17 | 14.04544 | 121.63353 | 17501 ft | 429 kts | 134° |
| 2026-05-09 06:17 | 14.02395 | 121.65505 | 17875 ft | 432 kts | 134° |
| 2026-05-09 06:17 | 14.00239 | 121.67664 | 18218 ft | 435 kts | 134° |
| 2026-05-09 06:17 | 13.98065 | 121.69839 | 18570 ft | 438 kts | 134° |
| 2026-05-09 06:18 | 13.95869 | 121.72038 | 18929 ft | 440 kts | 134° |
| 2026-05-09 06:18 | 13.93679 | 121.74231 | 19277 ft | 442 kts | 134° |
| 2026-05-09 06:18 | 13.91458 | 121.76450 | 19610 ft | 444 kts | 134° |
| 2026-05-09 06:18 | 13.89255 | 121.78649 | 19938 ft | 446 kts | 134° |
| 2026-05-09 06:19 | 13.86929 | 121.80825 | 20252 ft | 449 kts | 137° |
| 2026-05-09 06:19 | 13.84505 | 121.82855 | 20570 ft | 452 kts | 141° |
| 2026-05-09 06:19 | 13.81977 | 121.84789 | 20883 ft | 454 kts | 142° |
| 2026-05-09 06:19 | 13.79426 | 121.86710 | 21183 ft | 455 kts | 142° |
| 2026-05-09 06:20 | 13.76859 | 121.88643 | 21463 ft | 457 kts | 142° |
| 2026-05-09 06:20 | 13.74285 | 121.90580 | 21732 ft | 460 kts | 142° |
| 2026-05-09 06:20 | 13.71700 | 121.92526 | 22005 ft | 462 kts | 142° |
| 2026-05-09 06:20 | 13.69113 | 121.94475 | 22267 ft | 463 kts | 142° |
| 2026-05-09 06:21 | 13.66484 | 121.96455 | 22522 ft | 465 kts | 142° |
| 2026-05-09 06:21 | 13.63866 | 121.98427 | 22772 ft | 467 kts | 142° |
| 2026-05-09 06:21 | 13.61256 | 122.00392 | 23014 ft | 469 kts | 142° |
| 2026-05-09 06:21 | 13.58588 | 122.02400 | 23268 ft | 471 kts | 142° |
| 2026-05-09 06:22 | 13.55951 | 122.04387 | 23514 ft | 473 kts | 142° |
| 2026-05-09 06:22 | 13.53283 | 122.06396 | 23757 ft | 475 kts | 142° |
| 2026-05-09 06:22 | 13.50606 | 122.08414 | 23993 ft | 476 kts | 142° |
| 2026-05-09 06:22 | 13.47949 | 122.10413 | 24214 ft | 478 kts | 142° |
| 2026-05-09 06:23 | 13.45245 | 122.12445 | 24436 ft | 480 kts | 142° |
| 2026-05-09 06:23 | 13.42538 | 122.14481 | 24649 ft | 482 kts | 142° |
| 2026-05-09 06:23 | 13.39828 | 122.16519 | 24911 ft | 482 kts | 143° |
| 2026-05-09 06:23 | 13.37126 | 122.18551 | 25242 ft | 481 kts | 143° |
| 2026-05-09 06:24 | 13.34431 | 122.20576 | 25568 ft | 480 kts | 143° |
| 2026-05-09 06:24 | 13.31729 | 122.22606 | 25874 ft | 480 kts | 143° |
| 2026-05-09 06:24 | 13.29032 | 122.24631 | 26188 ft | 480 kts | 143° |
| 2026-05-09 06:24 | 13.26340 | 122.26653 | 26502 ft | 479 kts | 143° |
| 2026-05-09 06:25 | 13.23649 | 122.28673 | 26822 ft | 479 kts | 143° |
| 2026-05-09 06:25 | 13.20965 | 122.30686 | 27140 ft | 478 kts | 143° |
| 2026-05-09 06:25 | 13.18284 | 122.32699 | 27454 ft | 478 kts | 144° |
| 2026-05-09 06:25 | 13.15593 | 122.34717 | 27792 ft | 477 kts | 144° |
| 2026-05-09 06:26 | 13.12910 | 122.36728 | 28125 ft | 476 kts | 144° |
| 2026-05-09 06:26 | 13.10248 | 122.38723 | 28443 ft | 476 kts | 144° |
| 2026-05-09 06:26 | 13.07560 | 122.40738 | 28750 ft | 476 kts | 144° |
| 2026-05-09 06:26 | 13.04906 | 122.42725 | 29064 ft | 475 kts | 144° |
| 2026-05-09 06:27 | 13.02231 | 122.44729 | 29395 ft | 474 kts | 144° |
| 2026-05-09 06:27 | 12.99584 | 122.46710 | 29769 ft | 472 kts | 144° |
| 2026-05-09 06:27 | 12.96928 | 122.48699 | 30145 ft | 470 kts | 144° |
| 2026-05-09 06:27 | 12.94308 | 122.50662 | 30489 ft | 468 kts | 144° |
| 2026-05-09 06:28 | 12.91662 | 122.52641 | 30818 ft | 467 kts | 144° |
| 2026-05-09 06:28 | 12.89216 | 122.54472 | 31111 ft | 466 kts | 144° |
| 2026-05-09 06:28 | 12.86398 | 122.56578 | 31446 ft | 465 kts | 144° |
| 2026-05-09 06:28 | 12.83780 | 122.58535 | 31764 ft | 464 kts | 144° |
| 2026-05-09 06:29 | 12.81177 | 122.60480 | 32102 ft | 463 kts | 144° |
| 2026-05-09 06:29 | 12.78570 | 122.62429 | 32455 ft | 461 kts | 144° |
| 2026-05-09 06:29 | 12.75995 | 122.64352 | 32858 ft | 458 kts | 144° |
| 2026-05-09 06:29 | 12.73422 | 122.66275 | 33244 ft | 457 kts | 144° |
| 2026-05-09 06:30 | 12.70855 | 122.68192 | 33572 ft | 457 kts | 145° |
| 2026-05-09 06:30 | 12.68276 | 122.70116 | 33880 ft | 457 kts | 144° |
| 2026-05-09 06:30 | 12.65705 | 122.72036 | 34193 ft | 457 kts | 145° |
| 2026-05-09 06:30 | 12.63163 | 122.73934 | 34507 ft | 457 kts | 145° |
| 2026-05-09 06:31 | 12.60578 | 122.75862 | 34831 ft | 456 kts | 145° |
| 2026-05-09 06:31 | 12.58017 | 122.77770 | 35151 ft | 456 kts | 145° |
| 2026-05-09 06:31 | 12.55453 | 122.79683 | 35413 ft | 456 kts | 145° |
| 2026-05-09 06:31 | 12.52859 | 122.81616 | 35615 ft | 458 kts | 145° |
| 2026-05-09 06:32 | 12.50309 | 122.83519 | 35796 ft | 460 kts | 145° |
| 2026-05-09 06:32 | 12.47706 | 122.85458 | 35989 ft | 461 kts | 145° |
| 2026-05-09 06:32 | 12.45092 | 122.87407 | 36178 ft | 462 kts | 145° |
| 2026-05-09 06:33 | 12.39900 | 122.91274 | 36529 ft | 464 kts | 145° |
| 2026-05-09 06:33 | 12.37281 | 122.93225 | 36682 ft | 465 kts | 145° |
| 2026-05-09 06:33 | 12.34685 | 122.95158 | 36830 ft | 466 kts | 145° |
| 2026-05-09 06:34 | 12.26728 | 123.01063 | 36903 ft | 474 kts | 145° |
| 2026-05-09 06:34 | 12.21368 | 123.05038 | 36905 ft | 475 kts | 145° |
| 2026-05-09 06:35 | 12.16023 | 123.09003 | 36906 ft | 475 kts | 145° |
| 2026-05-09 06:35 | 12.10664 | 123.12981 | 36907 ft | 475 kts | 145° |
| 2026-05-09 06:36 | 12.05319 | 123.16947 | 36908 ft | 476 kts | 145° |
| 2026-05-09 06:36 | 11.99970 | 123.20911 | 36908 ft | 476 kts | 145° |
| 2026-05-09 06:37 | 11.94596 | 123.24895 | 36908 ft | 476 kts | 145° |
| 2026-05-09 06:37 | 11.89226 | 123.28873 | 36907 ft | 476 kts | 145° |
| 2026-05-09 06:38 | 11.83851 | 123.32853 | 36905 ft | 476 kts | 145° |
| 2026-05-09 06:38 | 11.78493 | 123.36817 | 36904 ft | 475 kts | 145° |
| 2026-05-09 06:39 | 11.73147 | 123.40771 | 36900 ft | 475 kts | 145° |
| 2026-05-09 06:39 | 11.67764 | 123.44752 | 36898 ft | 475 kts | 145° |
| 2026-05-09 06:40 | 11.62426 | 123.48696 | 36896 ft | 475 kts | 145° |
| 2026-05-09 06:40 | 11.57061 | 123.52660 | 36895 ft | 476 kts | 145° |
| 2026-05-09 06:41 | 11.51676 | 123.56636 | 36898 ft | 475 kts | 145° |
| 2026-05-09 06:41 | 11.46332 | 123.60580 | 36900 ft | 475 kts | 145° |
| 2026-05-09 06:42 | 11.41001 | 123.64513 | 36897 ft | 475 kts | 145° |
| 2026-05-09 06:42 | 11.35639 | 123.68468 | 36896 ft | 475 kts | 145° |
| 2026-05-09 06:43 | 11.30258 | 123.72439 | 36896 ft | 475 kts | 145° |
| 2026-05-09 06:43 | 11.24905 | 123.76386 | 36897 ft | 475 kts | 145° |
| 2026-05-09 06:44 | 11.19476 | 123.80203 | 36892 ft | 473 kts | 150° |
| 2026-05-09 06:44 | 11.13638 | 123.83264 | 36887 ft | 471 kts | 158° |
| 2026-05-09 06:45 | 11.07416 | 123.85446 | 36888 ft | 470 kts | 166° |
| 2026-05-09 06:45 | 11.01023 | 123.86764 | 36889 ft | 470 kts | 171° |
| 2026-05-09 06:46 | 10.94575 | 123.87875 | 36889 ft | 470 kts | 171° |
| 2026-05-09 06:46 | 10.88096 | 123.88992 | 36889 ft | 470 kts | 171° |
| 2026-05-09 06:47 | 10.81628 | 123.90115 | 36888 ft | 469 kts | 171° |
| 2026-05-09 06:47 | 10.75160 | 123.91239 | 36887 ft | 469 kts | 171° |
| 2026-05-09 06:48 | 10.68715 | 123.92355 | 36888 ft | 469 kts | 171° |
| 2026-05-09 06:48 | 10.62270 | 123.93467 | 36895 ft | 470 kts | 171° |
| 2026-05-09 06:49 | 10.55814 | 123.94584 | 36904 ft | 470 kts | 171° |
| 2026-05-09 06:49 | 10.49369 | 123.95702 | 36912 ft | 470 kts | 171° |
| 2026-05-09 06:50 | 10.42909 | 123.96822 | 36913 ft | 470 kts | 171° |
| 2026-05-09 06:50 | 10.36432 | 123.97944 | 36911 ft | 471 kts | 171° |
| 2026-05-09 06:51 | 10.30018 | 123.99322 | 36820 ft | 468 kts | 166° |
| 2026-05-09 06:51 | 10.26915 | 124.00257 | 36522 ft | 464 kts | 163° |
| 2026-05-09 06:51 | 10.23830 | 124.01267 | 36224 ft | 460 kts | 163° |
| 2026-05-09 06:52 | 10.20779 | 124.02277 | 35927 ft | 457 kts | 162° |
| 2026-05-09 06:52 | 10.17770 | 124.03272 | 35624 ft | 455 kts | 163° |
| 2026-05-09 06:52 | 10.14755 | 124.04269 | 35180 ft | 455 kts | 162° |
| 2026-05-09 06:52 | 10.11755 | 124.05258 | 34613 ft | 455 kts | 163° |
| 2026-05-09 06:53 | 10.08742 | 124.06251 | 33969 ft | 456 kts | 162° |
| 2026-05-09 06:53 | 10.05717 | 124.07246 | 33270 ft | 457 kts | 163° |
| 2026-05-09 06:53 | 10.02696 | 124.08239 | 32541 ft | 459 kts | 163° |
| 2026-05-09 06:53 | 9.99625 | 124.09247 | 31837 ft | 460 kts | 162° |
| 2026-05-09 06:54 | 9.96585 | 124.10241 | 31067 ft | 462 kts | 162° |
| 2026-05-09 06:54 | 9.93525 | 124.11240 | 30241 ft | 464 kts | 162° |
| 2026-05-09 06:54 | 9.90443 | 124.12248 | 29363 ft | 467 kts | 162° |
| 2026-05-09 06:54 | 9.87329 | 124.13268 | 28460 ft | 470 kts | 162° |
| 2026-05-09 06:55 | 9.84217 | 124.14288 | 27594 ft | 472 kts | 161° |
| 2026-05-09 06:55 | 9.81073 | 124.15318 | 26685 ft | 475 kts | 161° |
| 2026-05-09 06:55 | 9.77908 | 124.16354 | 25734 ft | 477 kts | 161° |
| 2026-05-09 06:55 | 9.74742 | 124.17390 | 24740 ft | 479 kts | 160° |
| 2026-05-09 06:56 | 9.71609 | 124.18418 | 23948 ft | 476 kts | 160° |
| 2026-05-09 06:56 | 9.68467 | 124.19449 | 23313 ft | 470 kts | 160° |
| 2026-05-09 06:56 | 9.65384 | 124.20461 | 22682 ft | 464 kts | 160° |
| 2026-05-09 06:56 | 9.62312 | 124.21470 | 22032 ft | 459 kts | 159° |
| 2026-05-09 06:57 | 9.59280 | 124.22477 | 21377 ft | 455 kts | 159° |
| 2026-05-09 06:57 | 9.56283 | 124.23476 | 20689 ft | 452 kts | 159° |
| 2026-05-09 06:57 | 9.53295 | 124.24450 | 20007 ft | 449 kts | 159° |
| 2026-05-09 06:57 | 9.50332 | 124.25413 | 19302 ft | 447 kts | 159° |
| 2026-05-09 06:58 | 9.47368 | 124.26376 | 18596 ft | 445 kts | 159° |
| 2026-05-09 06:58 | 9.44419 | 124.27336 | 17890 ft | 443 kts | 159° |
| 2026-05-09 06:58 | 9.41484 | 124.28294 | 17184 ft | 441 kts | 159° |
| 2026-05-09 06:58 | 9.38595 | 124.29239 | 16499 ft | 438 kts | 159° |
| 2026-05-09 06:59 | 9.35689 | 124.30191 | 15827 ft | 435 kts | 160° |
| 2026-05-09 06:59 | 9.32840 | 124.31124 | 15180 ft | 431 kts | 160° |
| 2026-05-09 06:59 | 9.29977 | 124.32062 | 14531 ft | 427 kts | 160° |
| 2026-05-09 06:59 | 9.27179 | 124.32977 | 13900 ft | 423 kts | 160° |
| 2026-05-09 07:00 | 9.24369 | 124.33897 | 13255 ft | 419 kts | 160° |
| 2026-05-09 07:00 | 9.21625 | 124.34794 | 12624 ft | 415 kts | 160° |
| 2026-05-09 07:00 | 9.18875 | 124.35693 | 12071 ft | 409 kts | 160° |
| 2026-05-09 07:00 | 9.16187 | 124.36570 | 11655 ft | 399 kts | 160° |
| 2026-05-09 07:01 | 9.13573 | 124.37424 | 11287 ft | 389 kts | 160° |
| 2026-05-09 07:01 | 9.11028 | 124.38255 | 11030 ft | 376 kts | 160° |
| 2026-05-09 07:01 | 9.08576 | 124.39056 | 10805 ft | 362 kts | 160° |
| 2026-05-09 07:01 | 9.06263 | 124.39810 | 10587 ft | 335 kts | 159° |
| 2026-05-09 07:02 | 9.04095 | 124.40492 | 10381 ft | 312 kts | 164° |
| 2026-05-09 07:02 | 9.01993 | 124.40591 | 10188 ft | 300 kts | 187° |
| 2026-05-09 07:02 | 9.00035 | 124.39941 | 10036 ft | 294 kts | 202° |
| 2026-05-09 07:02 | 8.98177 | 124.39058 | 9741 ft | 294 kts | 204° |
| 2026-05-09 07:03 | 8.96336 | 124.38161 | 9360 ft | 296 kts | 204° |
| 2026-05-09 07:03 | 8.94465 | 124.37261 | 8972 ft | 298 kts | 203° |
| 2026-05-09 07:03 | 8.92581 | 124.36366 | 8595 ft | 298 kts | 203° |
| 2026-05-09 07:03 | 8.90690 | 124.35474 | 8223 ft | 299 kts | 203° |
| 2026-05-09 07:04 | 8.88789 | 124.34580 | 7858 ft | 299 kts | 203° |
| 2026-05-09 07:04 | 8.86919 | 124.33702 | 7507 ft | 299 kts | 203° |
| 2026-05-09 07:04 | 8.85024 | 124.32812 | 7141 ft | 299 kts | 203° |
| 2026-05-09 07:04 | 8.83133 | 124.31924 | 6753 ft | 299 kts | 203° |
| 2026-05-09 07:05 | 8.81254 | 124.31042 | 6386 ft | 293 kts | 203° |
| 2026-05-09 07:05 | 8.79434 | 124.30187 | 6027 ft | 281 kts | 203° |
| 2026-05-09 07:05 | 8.77689 | 124.29368 | 5690 ft | 269 kts | 203° |
| 2026-05-09 07:05 | 8.76032 | 124.28588 | 5359 ft | 259 kts | 203° |
| 2026-05-09 07:06 | 8.74416 | 124.27830 | 5045 ft | 250 kts | 203° |
| 2026-05-09 07:06 | 8.72868 | 124.27103 | 4741 ft | 240 kts | 203° |
| 2026-05-09 07:06 | 8.71370 | 124.26400 | 4503 ft | 228 kts | 203° |
| 2026-05-09 07:06 | 8.69934 | 124.25874 | 4244 ft | 215 kts | 191° |
| 2026-05-09 07:07 | 8.68484 | 124.25704 | 3938 ft | 205 kts | 178° |
| 2026-05-09 07:07 | 8.67072 | 124.25775 | 3761 ft | 198 kts | 173° |
| 2026-05-09 07:07 | 8.65699 | 124.25893 | 3725 ft | 198 kts | 172° |
| 2026-05-09 07:07 | 8.64314 | 124.26015 | 3676 ft | 199 kts | 172° |
| 2026-05-09 07:08 | 8.62916 | 124.26132 | 3629 ft | 199 kts | 173° |
| 2026-05-09 07:08 | 8.61527 | 124.26247 | 3568 ft | 199 kts | 171° |
| 2026-05-09 07:08 | 8.60288 | 124.26770 | 3396 ft | 192 kts | 132° |
| 2026-05-09 07:08 | 8.59765 | 124.27958 | 3253 ft | 187 kts | 92° |
| 2026-05-09 07:09 | 8.59866 | 124.29253 | 3138 ft | 185 kts | 83° |
| 2026-05-09 07:09 | 8.60001 | 124.30548 | 2904 ft | 185 kts | 83° |
| 2026-05-09 07:09 | 8.60223 | 124.33040 | 2329 ft | 185 kts | 84° |
| 2026-05-09 07:10 | 8.60325 | 124.34313 | 2052 ft | 174 kts | 84° |
| 2026-05-09 07:10 | 8.60417 | 124.35487 | 1867 ft | 160 kts | 84° |
| 2026-05-09 07:10 | 8.60501 | 124.36558 | 1722 ft | 147 kts | 84° |
| 2026-05-09 07:10 | 8.60577 | 124.37543 | 1542 ft | 138 kts | 83° |
| 2026-05-09 07:11 | 8.60653 | 124.38504 | 1377 ft | 137 kts | 83° |
| 2026-05-09 07:11 | 8.60729 | 124.39464 | 1210 ft | 137 kts | 83° |
| 2026-05-09 07:11 | 8.60805 | 124.40427 | 1029 ft | 137 kts | 83° |
| 2026-05-09 07:11 | 8.60881 | 124.41379 | 856 ft | 136 kts | 83° |
| 2026-05-09 07:12 | 8.60953 | 124.42332 | 722 ft | 136 kts | 82° |
| 2026-05-09 07:12 | 8.61028 | 124.43284 | 489 ft | 134 kts | 83° |
| 2026-05-09 07:12 | 8.61107 | 124.44229 | 314 ft | 135 kts | 83° |
| 2026-05-09 07:12 | 8.61179 | 124.45167 | 200 ft | 131 kts | 83° |
| 2026-05-09 07:13 | 8.61242 | 124.45896 | 195 ft | 62 kts | 85° |
| 2026-05-09 07:13 | 8.61261 | 124.46165 | 196 ft | 31 kts | 86° |
| 2026-05-09 07:13 | 8.61277 | 124.46372 | 196 ft | 27 kts | 86° |
| 2026-05-09 07:13 | 8.61280 | 124.46498 | 196 ft | 13 kts | 104° |
| 2026-05-09 07:14 | 8.61259 | 124.46564 | 196 ft | 6 kts | 92° |
| 2026-05-09 07:14 | 8.61274 | 124.46576 | 196 ft | 3 kts | 338° |
| 2026-05-09 07:14 | 8.61289 | 124.46551 | 196 ft | 4 kts | 281° |
| 2026-05-09 07:14 | 8.61286 | 124.46484 | 196 ft | 16 kts | 265° |
| 2026-05-09 07:15 | 8.61275 | 124.46342 | 196 ft | 20 kts | 266° |
| 2026-05-09 07:15 | 8.61265 | 124.46197 | 195 ft | 20 kts | 265° |
| 2026-05-09 07:15 | 8.61263 | 124.46054 | 195 ft | 20 kts | 268° |
| 2026-05-09 07:15 | 8.61173 | 124.45969 | 196 ft | 19 kts | 185° |
| 2026-05-09 07:16 | 8.61046 | 124.45976 | 196 ft | 14 kts | 182° |
| 2026-05-09 07:16 | 8.61003 | 124.45911 | 196 ft | 12 kts | 265° |
| 2026-05-09 07:16 | 8.60996 | 124.45849 | 196 ft | 6 kts | 242° |
| 2026-05-09 07:16 | 8.60948 | 124.45838 | 196 ft | 7 kts | 175° |
| 2026-05-09 07:17 | 8.60919 | 124.45840 | 196 ft | 1 kts | 175° |
| 2026-05-09 07:17 | 8.60916 | 124.45840 | 195 ft | 0 kts | 175° |